sensor_id;sensor_type;location;lat;lon;timestamp;P1;durP1;ratioP1;P2;durP2;ratioP2
20022;SDS011;10172;42.054;24.546;2022-12-07T00:01:13;12.07;;;5.47;;
20022;SDS011;10172;42.054;24.546;2022-12-07T00:03:41;9.05;;;4.30;;
20022;SDS011;10172;42.054;24.546;2022-12-07T00:06:08;9.70;;;4.63;;
20022;SDS011;10172;42.054;24.546;2022-12-07T00:08:36;9.20;;;4.50;;
20022;SDS011;10172;42.054;24.546;2022-12-07T00:11:08;8.70;;;4.82;;
20022;SDS011;10172;42.054;24.546;2022-12-07T00:13:45;9.90;;;5.10;;
20022;SDS011;10172;42.054;24.546;2022-12-07T00:16:12;10.30;;;5.18;;
20022;SDS011;10172;42.054;24.546;2022-12-07T00:18:42;14.48;;;5.35;;
20022;SDS011;10172;42.054;24.546;2022-12-07T00:21:15;16.50;;;5.43;;
20022;SDS011;10172;42.054;24.546;2022-12-07T00:23:43;14.23;;;5.40;;
20022;SDS011;10172;42.054;24.546;2022-12-07T00:26:14;11.00;;;5.60;;
20022;SDS011;10172;42.054;24.546;2022-12-07T00:29:01;12.73;;;4.97;;
20022;SDS011;10172;42.054;24.546;2022-12-07T00:31:30;11.02;;;5.40;;
20022;SDS011;10172;42.054;24.546;2022-12-07T00:33:58;12.27;;;5.45;;
20022;SDS011;10172;42.054;24.546;2022-12-07T00:36:24;8.98;;;4.07;;
20022;SDS011;10172;42.054;24.546;2022-12-07T00:38:50;9.60;;;4.93;;
20022;SDS011;10172;42.054;24.546;2022-12-07T00:41:20;11.93;;;5.70;;
20022;SDS011;10172;42.054;24.546;2022-12-07T00:43:47;9.55;;;5.38;;
20022;SDS011;10172;42.054;24.546;2022-12-07T00:46:14;12.40;;;5.68;;
20022;SDS011;10172;42.054;24.546;2022-12-07T00:48:40;11.52;;;5.75;;
20022;SDS011;10172;42.054;24.546;2022-12-07T00:51:07;10.57;;;5.60;;
20022;SDS011;10172;42.054;24.546;2022-12-07T00:53:34;9.48;;;5.43;;
20022;SDS011;10172;42.054;24.546;2022-12-07T00:56:07;13.98;;;6.28;;
20022;SDS011;10172;42.054;24.546;2022-12-07T00:58:34;11.07;;;5.90;;
20022;SDS011;10172;42.054;24.546;2022-12-07T01:01:03;14.30;;;6.03;;
20022;SDS011;10172;42.054;24.546;2022-12-07T01:03:29;12.00;;;5.93;;
20022;SDS011;10172;42.054;24.546;2022-12-07T01:05:56;11.55;;;6.00;;
20022;SDS011;10172;42.054;24.546;2022-12-07T01:08:22;13.68;;;6.07;;
20022;SDS011;10172;42.054;24.546;2022-12-07T01:10:49;12.05;;;5.70;;
20022;SDS011;10172;42.054;24.546;2022-12-07T01:13:15;12.80;;;6.22;;
20022;SDS011;10172;42.054;24.546;2022-12-07T01:15:44;13.43;;;6.72;;
20022;SDS011;10172;42.054;24.546;2022-12-07T01:18:10;12.55;;;6.40;;
20022;SDS011;10172;42.054;24.546;2022-12-07T01:20:36;9.63;;;5.35;;
20022;SDS011;10172;42.054;24.546;2022-12-07T01:23:02;9.48;;;5.25;;
20022;SDS011;10172;42.054;24.546;2022-12-07T01:25:27;10.30;;;5.63;;
20022;SDS011;10172;42.054;24.546;2022-12-07T01:27:53;12.65;;;6.45;;
20022;SDS011;10172;42.054;24.546;2022-12-07T01:30:18;12.27;;;6.32;;
20022;SDS011;10172;42.054;24.546;2022-12-07T01:32:44;16.73;;;6.28;;
20022;SDS011;10172;42.054;24.546;2022-12-07T01:35:09;15.60;;;6.20;;
20022;SDS011;10172;42.054;24.546;2022-12-07T01:37:38;14.88;;;6.93;;
20022;SDS011;10172;42.054;24.546;2022-12-07T01:40:04;13.50;;;6.93;;
20022;SDS011;10172;42.054;24.546;2022-12-07T01:42:31;9.90;;;5.63;;
20022;SDS011;10172;42.054;24.546;2022-12-07T01:48:01;8.52;;;5.50;;
20022;SDS011;10172;42.054;24.546;2022-12-07T01:50:27;13.68;;;6.18;;
20022;SDS011;10172;42.054;24.546;2022-12-07T01:52:56;10.55;;;5.15;;
20022;SDS011;10172;42.054;24.546;2022-12-07T01:55:23;12.82;;;5.40;;
20022;SDS011;10172;42.054;24.546;2022-12-07T01:57:49;11.80;;;5.63;;
20022;SDS011;10172;42.054;24.546;2022-12-07T02:00:17;13.50;;;6.35;;
20022;SDS011;10172;42.054;24.546;2022-12-07T02:02:45;12.00;;;5.70;;
20022;SDS011;10172;42.054;24.546;2022-12-07T02:05:16;10.00;;;5.72;;
20022;SDS011;10172;42.054;24.546;2022-12-07T02:07:42;15.13;;;6.53;;
20022;SDS011;10172;42.054;24.546;2022-12-07T02:10:16;10.20;;;5.72;;
20022;SDS011;10172;42.054;24.546;2022-12-07T02:12:43;14.50;;;7.00;;
20022;SDS011;10172;42.054;24.546;2022-12-07T02:15:11;12.40;;;6.28;;
20022;SDS011;10172;42.054;24.546;2022-12-07T02:23:35;11.75;;;6.25;;
20022;SDS011;10172;42.054;24.546;2022-12-07T02:29:12;12.05;;;6.40;;
20022;SDS011;10172;42.054;24.546;2022-12-07T02:31:42;10.77;;;6.05;;
20022;SDS011;10172;42.054;24.546;2022-12-07T02:34:19;13.45;;;6.18;;
20022;SDS011;10172;42.054;24.546;2022-12-07T02:36:50;13.43;;;5.50;;
20022;SDS011;10172;42.054;24.546;2022-12-07T02:39:41;13.18;;;6.13;;
20022;SDS011;10172;42.054;24.546;2022-12-07T02:42:09;11.40;;;5.38;;
20022;SDS011;10172;42.054;24.546;2022-12-07T02:44:41;11.27;;;5.47;;
20022;SDS011;10172;42.054;24.546;2022-12-07T02:47:08;11.00;;;5.57;;
20022;SDS011;10172;42.054;24.546;2022-12-07T02:49:37;11.25;;;6.35;;
20022;SDS011;10172;42.054;24.546;2022-12-07T02:52:04;12.15;;;6.05;;
20022;SDS011;10172;42.054;24.546;2022-12-07T02:54:30;9.48;;;4.70;;
20022;SDS011;10172;42.054;24.546;2022-12-07T03:00:04;13.23;;;5.70;;
20022;SDS011;10172;42.054;24.546;2022-12-07T03:02:50;10.30;;;5.13;;
20022;SDS011;10172;42.054;24.546;2022-12-07T03:11:36;10.00;;;4.93;;
20022;SDS011;10172;42.054;24.546;2022-12-07T03:14:18;14.73;;;6.10;;
20022;SDS011;10172;42.054;24.546;2022-12-07T03:19:19;11.77;;;5.25;;
20022;SDS011;10172;42.054;24.546;2022-12-07T03:21:50;10.25;;;5.10;;
20022;SDS011;10172;42.054;24.546;2022-12-07T03:24:31;11.73;;;5.22;;
20022;SDS011;10172;42.054;24.546;2022-12-07T03:27:03;10.40;;;5.25;;
20022;SDS011;10172;42.054;24.546;2022-12-07T03:32:46;8.38;;;4.60;;
20022;SDS011;10172;42.054;24.546;2022-12-07T03:40:34;11.65;;;5.97;;
20022;SDS011;10172;42.054;24.546;2022-12-07T03:43:04;10.73;;;5.85;;
20022;SDS011;10172;42.054;24.546;2022-12-07T03:45:40;13.43;;;5.80;;
20022;SDS011;10172;42.054;24.546;2022-12-07T03:48:13;13.30;;;5.32;;
20022;SDS011;10172;42.054;24.546;2022-12-07T03:50:50;10.63;;;4.85;;
20022;SDS011;10172;42.054;24.546;2022-12-07T03:53:26;13.82;;;6.40;;
20022;SDS011;10172;42.054;24.546;2022-12-07T03:55:59;13.75;;;5.78;;
20022;SDS011;10172;42.054;24.546;2022-12-07T03:58:26;18.67;;;9.10;;
20022;SDS011;10172;42.054;24.546;2022-12-07T04:00:52;10.73;;;5.35;;
20022;SDS011;10172;42.054;24.546;2022-12-07T04:03:18;25.10;;;6.65;;
20022;SDS011;10172;42.054;24.546;2022-12-07T04:05:44;12.05;;;5.50;;
20022;SDS011;10172;42.054;24.546;2022-12-07T04:08:09;13.25;;;7.22;;
20022;SDS011;10172;42.054;24.546;2022-12-07T04:10:35;14.27;;;6.22;;
20022;SDS011;10172;42.054;24.546;2022-12-07T04:13:00;11.63;;;6.47;;
20022;SDS011;10172;42.054;24.546;2022-12-07T04:15:26;18.08;;;6.40;;
20022;SDS011;10172;42.054;24.546;2022-12-07T04:17:51;14.18;;;6.53;;
20022;SDS011;10172;42.054;24.546;2022-12-07T04:20:17;11.98;;;5.57;;
20022;SDS011;10172;42.054;24.546;2022-12-07T04:22:42;11.35;;;4.95;;
20022;SDS011;10172;42.054;24.546;2022-12-07T04:25:08;13.57;;;7.07;;
20022;SDS011;10172;42.054;24.546;2022-12-07T04:27:34;13.38;;;6.00;;
20022;SDS011;10172;42.054;24.546;2022-12-07T04:29:59;13.00;;;6.05;;
20022;SDS011;10172;42.054;24.546;2022-12-07T04:32:24;10.38;;;5.13;;
20022;SDS011;10172;42.054;24.546;2022-12-07T04:34:50;14.55;;;6.72;;
20022;SDS011;10172;42.054;24.546;2022-12-07T04:37:15;10.85;;;5.18;;
20022;SDS011;10172;42.054;24.546;2022-12-07T04:39:42;8.80;;;5.55;;
20022;SDS011;10172;42.054;24.546;2022-12-07T04:42:09;14.32;;;6.43;;
20022;SDS011;10172;42.054;24.546;2022-12-07T04:44:35;10.68;;;5.57;;
20022;SDS011;10172;42.054;24.546;2022-12-07T04:47:01;11.10;;;6.50;;
20022;SDS011;10172;42.054;24.546;2022-12-07T04:49:27;10.02;;;5.88;;
20022;SDS011;10172;42.054;24.546;2022-12-07T04:51:52;18.40;;;9.13;;
20022;SDS011;10172;42.054;24.546;2022-12-07T04:54:18;10.75;;;5.25;;
20022;SDS011;10172;42.054;24.546;2022-12-07T04:56:44;12.48;;;6.22;;
20022;SDS011;10172;42.054;24.546;2022-12-07T04:59:13;14.27;;;6.43;;
20022;SDS011;10172;42.054;24.546;2022-12-07T05:01:40;14.25;;;5.72;;
20022;SDS011;10172;42.054;24.546;2022-12-07T05:04:06;10.82;;;6.75;;
20022;SDS011;10172;42.054;24.546;2022-12-07T05:06:31;10.57;;;5.53;;
20022;SDS011;10172;42.054;24.546;2022-12-07T05:08:57;12.10;;;6.20;;
20022;SDS011;10172;42.054;24.546;2022-12-07T05:11:23;8.57;;;4.43;;
20022;SDS011;10172;42.054;24.546;2022-12-07T05:14:08;8.00;;;4.65;;
20022;SDS011;10172;42.054;24.546;2022-12-07T05:16:39;15.43;;;5.47;;
20022;SDS011;10172;42.054;24.546;2022-12-07T05:19:06;9.50;;;4.95;;
20022;SDS011;10172;42.054;24.546;2022-12-07T05:21:32;10.05;;;5.18;;
20022;SDS011;10172;42.054;24.546;2022-12-07T05:23:57;10.57;;;5.60;;
20022;SDS011;10172;42.054;24.546;2022-12-07T05:26:23;9.80;;;6.03;;
20022;SDS011;10172;42.054;24.546;2022-12-07T05:28:52;9.95;;;4.93;;
20022;SDS011;10172;42.054;24.546;2022-12-07T05:31:19;8.57;;;5.03;;
20022;SDS011;10172;42.054;24.546;2022-12-07T05:33:45;9.77;;;4.55;;
20022;SDS011;10172;42.054;24.546;2022-12-07T05:36:10;7.22;;;4.65;;
20022;SDS011;10172;42.054;24.546;2022-12-07T05:38:35;11.65;;;7.35;;
20022;SDS011;10172;42.054;24.546;2022-12-07T05:41:02;10.45;;;5.18;;
20022;SDS011;10172;42.054;24.546;2022-12-07T05:43:28;8.50;;;4.05;;
20022;SDS011;10172;42.054;24.546;2022-12-07T05:45:54;11.43;;;5.47;;
20022;SDS011;10172;42.054;24.546;2022-12-07T05:48:20;10.23;;;4.68;;
20022;SDS011;10172;42.054;24.546;2022-12-07T05:50:47;11.23;;;5.32;;
20022;SDS011;10172;42.054;24.546;2022-12-07T05:53:13;11.73;;;6.65;;
20022;SDS011;10172;42.054;24.546;2022-12-07T05:55:39;16.58;;;6.35;;
20022;SDS011;10172;42.054;24.546;2022-12-07T05:58:04;10.48;;;5.63;;
20022;SDS011;10172;42.054;24.546;2022-12-07T06:00:48;14.07;;;6.93;;
20022;SDS011;10172;42.054;24.546;2022-12-07T06:03:14;27.95;;;14.73;;
20022;SDS011;10172;42.054;24.546;2022-12-07T06:05:39;13.20;;;6.97;;
20022;SDS011;10172;42.054;24.546;2022-12-07T06:08:05;12.98;;;6.72;;
20022;SDS011;10172;42.054;24.546;2022-12-07T06:10:30;14.32;;;6.70;;
20022;SDS011;10172;42.054;24.546;2022-12-07T06:12:56;18.90;;;5.72;;
20022;SDS011;10172;42.054;24.546;2022-12-07T06:15:21;15.55;;;6.05;;
20022;SDS011;10172;42.054;24.546;2022-12-07T06:17:48;11.73;;;5.72;;
20022;SDS011;10172;42.054;24.546;2022-12-07T06:20:13;15.52;;;7.97;;
20022;SDS011;10172;42.054;24.546;2022-12-07T06:22:39;11.55;;;5.00;;
20022;SDS011;10172;42.054;24.546;2022-12-07T06:25:04;10.88;;;5.05;;
20022;SDS011;10172;42.054;24.546;2022-12-07T06:27:30;14.75;;;8.32;;
20022;SDS011;10172;42.054;24.546;2022-12-07T06:29:57;11.63;;;5.90;;
20022;SDS011;10172;42.054;24.546;2022-12-07T06:32:23;9.27;;;4.93;;
20022;SDS011;10172;42.054;24.546;2022-12-07T06:34:48;10.65;;;4.97;;
20022;SDS011;10172;42.054;24.546;2022-12-07T06:37:14;15.13;;;8.73;;
20022;SDS011;10172;42.054;24.546;2022-12-07T06:39:39;17.60;;;9.77;;
20022;SDS011;10172;42.054;24.546;2022-12-07T06:42:05;13.00;;;6.57;;
20022;SDS011;10172;42.054;24.546;2022-12-07T06:44:30;15.48;;;6.90;;
20022;SDS011;10172;42.054;24.546;2022-12-07T06:46:56;11.93;;;5.65;;
20022;SDS011;10172;42.054;24.546;2022-12-07T06:49:21;15.30;;;6.30;;
20022;SDS011;10172;42.054;24.546;2022-12-07T06:51:47;23.75;;;14.23;;
20022;SDS011;10172;42.054;24.546;2022-12-07T06:54:13;26.13;;;16.10;;
20022;SDS011;10172;42.054;24.546;2022-12-07T06:56:39;26.27;;;17.65;;
20022;SDS011;10172;42.054;24.546;2022-12-07T06:59:05;24.35;;;14.75;;
20022;SDS011;10172;42.054;24.546;2022-12-07T07:01:32;24.58;;;12.38;;
20022;SDS011;10172;42.054;24.546;2022-12-07T07:03:58;15.88;;;10.73;;
20022;SDS011;10172;42.054;24.546;2022-12-07T07:06:23;23.80;;;12.90;;
20022;SDS011;10172;42.054;24.546;2022-12-07T07:08:49;27.33;;;14.35;;
20022;SDS011;10172;42.054;24.546;2022-12-07T07:11:14;22.13;;;13.65;;
20022;SDS011;10172;42.054;24.546;2022-12-07T07:13:40;23.85;;;13.95;;
20022;SDS011;10172;42.054;24.546;2022-12-07T07:16:06;19.58;;;10.43;;
20022;SDS011;10172;42.054;24.546;2022-12-07T07:18:31;117.53;;;83.78;;
20022;SDS011;10172;42.054;24.546;2022-12-07T07:20:57;51.72;;;35.08;;
20022;SDS011;10172;42.054;24.546;2022-12-07T07:23:23;33.70;;;22.58;;
20022;SDS011;10172;42.054;24.546;2022-12-07T07:25:49;31.60;;;18.92;;
20022;SDS011;10172;42.054;24.546;2022-12-07T07:28:14;27.45;;;17.15;;
20022;SDS011;10172;42.054;24.546;2022-12-07T07:30:40;23.38;;;13.20;;
20022;SDS011;10172;42.054;24.546;2022-12-07T07:40:47;17.15;;;8.80;;
20022;SDS011;10172;42.054;24.546;2022-12-07T07:43:12;16.67;;;9.50;;
20022;SDS011;10172;42.054;24.546;2022-12-07T07:45:38;21.20;;;9.45;;
20022;SDS011;10172;42.054;24.546;2022-12-07T07:48:03;31.90;;;11.27;;
20022;SDS011;10172;42.054;24.546;2022-12-07T07:50:29;16.83;;;10.32;;
20022;SDS011;10172;42.054;24.546;2022-12-07T07:52:56;21.10;;;10.18;;
20022;SDS011;10172;42.054;24.546;2022-12-07T07:55:22;19.98;;;9.18;;
20022;SDS011;10172;42.054;24.546;2022-12-07T07:57:47;16.70;;;9.63;;
20022;SDS011;10172;42.054;24.546;2022-12-07T08:00:13;19.30;;;10.10;;
20022;SDS011;10172;42.054;24.546;2022-12-07T08:02:40;22.50;;;12.63;;
20022;SDS011;10172;42.054;24.546;2022-12-07T08:05:07;23.10;;;12.30;;
20022;SDS011;10172;42.054;24.546;2022-12-07T08:07:33;75.05;;;29.90;;
20022;SDS011;10172;42.054;24.546;2022-12-07T08:09:58;43.22;;;20.35;;
20022;SDS011;10172;42.054;24.546;2022-12-07T08:12:24;37.17;;;18.75;;
20022;SDS011;10172;42.054;24.546;2022-12-07T08:14:49;25.38;;;13.98;;
20022;SDS011;10172;42.054;24.546;2022-12-07T08:17:15;23.02;;;11.75;;
20022;SDS011;10172;42.054;24.546;2022-12-07T08:19:40;20.40;;;12.23;;
20022;SDS011;10172;42.054;24.546;2022-12-07T08:22:06;18.33;;;11.07;;
20022;SDS011;10172;42.054;24.546;2022-12-07T08:24:35;18.35;;;9.95;;
20022;SDS011;10172;42.054;24.546;2022-12-07T08:27:00;19.55;;;11.73;;
20022;SDS011;10172;42.054;24.546;2022-12-07T08:29:26;30.70;;;10.90;;
20022;SDS011;10172;42.054;24.546;2022-12-07T08:31:52;42.95;;;18.85;;
20022;SDS011;10172;42.054;24.546;2022-12-07T08:34:18;25.05;;;13.73;;
20022;SDS011;10172;42.054;24.546;2022-12-07T08:36:43;40.40;;;21.45;;
20022;SDS011;10172;42.054;24.546;2022-12-07T08:39:09;31.05;;;16.70;;
20022;SDS011;10172;42.054;24.546;2022-12-07T08:41:35;42.75;;;20.05;;
20022;SDS011;10172;42.054;24.546;2022-12-07T08:44:00;26.42;;;13.05;;
20022;SDS011;10172;42.054;24.546;2022-12-07T08:46:37;24.02;;;10.65;;
20022;SDS011;10172;42.054;24.546;2022-12-07T08:49:30;20.67;;;11.10;;
20022;SDS011;10172;42.054;24.546;2022-12-07T08:52:04;23.98;;;12.77;;
20022;SDS011;10172;42.054;24.546;2022-12-07T08:54:30;23.83;;;12.00;;
20022;SDS011;10172;42.054;24.546;2022-12-07T08:57:00;23.20;;;11.27;;
20022;SDS011;10172;42.054;24.546;2022-12-07T08:59:26;19.50;;;10.82;;
20022;SDS011;10172;42.054;24.546;2022-12-07T09:01:53;23.00;;;11.93;;
20022;SDS011;10172;42.054;24.546;2022-12-07T09:04:18;19.95;;;10.60;;
20022;SDS011;10172;42.054;24.546;2022-12-07T09:06:45;22.35;;;11.45;;
20022;SDS011;10172;42.054;24.546;2022-12-07T09:09:11;24.33;;;11.60;;
20022;SDS011;10172;42.054;24.546;2022-12-07T09:11:37;26.48;;;13.73;;
20022;SDS011;10172;42.054;24.546;2022-12-07T09:14:04;30.23;;;15.07;;
20022;SDS011;10172;42.054;24.546;2022-12-07T09:16:29;29.70;;;15.23;;
20022;SDS011;10172;42.054;24.546;2022-12-07T09:18:55;26.17;;;12.90;;
20022;SDS011;10172;42.054;24.546;2022-12-07T09:21:20;22.25;;;11.38;;
20022;SDS011;10172;42.054;24.546;2022-12-07T09:23:46;32.20;;;14.30;;
20022;SDS011;10172;42.054;24.546;2022-12-07T09:26:11;23.70;;;12.23;;
20022;SDS011;10172;42.054;24.546;2022-12-07T09:28:37;30.20;;;13.32;;
20022;SDS011;10172;42.054;24.546;2022-12-07T09:31:02;25.48;;;12.43;;
20022;SDS011;10172;42.054;24.546;2022-12-07T09:33:28;23.35;;;12.10;;
20022;SDS011;10172;42.054;24.546;2022-12-07T09:35:54;23.20;;;11.32;;
20022;SDS011;10172;42.054;24.546;2022-12-07T09:38:19;31.23;;;13.57;;
20022;SDS011;10172;42.054;24.546;2022-12-07T09:40:45;29.15;;;14.07;;
20022;SDS011;10172;42.054;24.546;2022-12-07T09:43:15;25.90;;;12.40;;
20022;SDS011;10172;42.054;24.546;2022-12-07T09:45:43;25.77;;;12.52;;
20022;SDS011;10172;42.054;24.546;2022-12-07T09:48:30;30.75;;;13.23;;
20022;SDS011;10172;42.054;24.546;2022-12-07T09:50:58;21.75;;;12.40;;
20022;SDS011;10172;42.054;24.546;2022-12-07T09:53:36;27.67;;;12.57;;
20022;SDS011;10172;42.054;24.546;2022-12-07T09:56:03;23.55;;;11.43;;
20022;SDS011;10172;42.054;24.546;2022-12-07T09:58:30;26.33;;;12.68;;
20022;SDS011;10172;42.054;24.546;2022-12-07T10:01:19;24.38;;;12.45;;
20022;SDS011;10172;42.054;24.546;2022-12-07T10:03:48;25.55;;;13.77;;
20022;SDS011;10172;42.054;24.546;2022-12-07T10:06:24;27.20;;;12.80;;
20022;SDS011;10172;42.054;24.546;2022-12-07T10:08:49;28.13;;;13.80;;
20022;SDS011;10172;42.054;24.546;2022-12-07T10:11:15;34.50;;;13.32;;
20022;SDS011;10172;42.054;24.546;2022-12-07T10:13:45;23.67;;;13.02;;
20022;SDS011;10172;42.054;24.546;2022-12-07T10:19:16;31.25;;;13.10;;
20022;SDS011;10172;42.054;24.546;2022-12-07T10:24:24;18.45;;;11.70;;
20022;SDS011;10172;42.054;24.546;2022-12-07T10:26:51;27.17;;;13.32;;
20022;SDS011;10172;42.054;24.546;2022-12-07T10:29:20;22.92;;;13.70;;
20022;SDS011;10172;42.054;24.546;2022-12-07T10:34:36;26.10;;;13.63;;
20022;SDS011;10172;42.054;24.546;2022-12-07T10:42:25;23.15;;;13.45;;
20022;SDS011;10172;42.054;24.546;2022-12-07T10:47:38;24.80;;;13.95;;
20022;SDS011;10172;42.054;24.546;2022-12-07T11:15:15;30.23;;;14.23;;
20022;SDS011;10172;42.054;24.546;2022-12-07T11:17:45;26.80;;;13.77;;
20022;SDS011;10172;42.054;24.546;2022-12-07T11:29:00;22.90;;;13.48;;
20022;SDS011;10172;42.054;24.546;2022-12-07T11:31:38;25.98;;;13.25;;
20022;SDS011;10172;42.054;24.546;2022-12-07T11:37:02;27.30;;;13.52;;
20022;SDS011;10172;42.054;24.546;2022-12-07T11:39:39;26.58;;;14.13;;
20022;SDS011;10172;42.054;24.546;2022-12-07T11:42:21;29.02;;;15.40;;
20022;SDS011;10172;42.054;24.546;2022-12-07T11:44:54;32.92;;;15.32;;
20022;SDS011;10172;42.054;24.546;2022-12-07T11:53:09;28.70;;;15.27;;
20022;SDS011;10172;42.054;24.546;2022-12-07T11:58:35;28.30;;;14.52;;
20022;SDS011;10172;42.054;24.546;2022-12-07T12:03:58;31.63;;;14.90;;
20022;SDS011;10172;42.054;24.546;2022-12-07T12:06:25;27.65;;;15.05;;
20022;SDS011;10172;42.054;24.546;2022-12-07T12:19:40;27.92;;;16.27;;
20022;SDS011;10172;42.054;24.546;2022-12-07T12:24:44;33.38;;;15.57;;
20022;SDS011;10172;42.054;24.546;2022-12-07T12:27:32;26.77;;;13.93;;
20022;SDS011;10172;42.054;24.546;2022-12-07T12:30:07;27.42;;;14.95;;
20022;SDS011;10172;42.054;24.546;2022-12-07T12:32:51;26.98;;;13.70;;
20022;SDS011;10172;42.054;24.546;2022-12-07T12:37:45;29.65;;;14.10;;
20022;SDS011;10172;42.054;24.546;2022-12-07T12:42:44;34.25;;;15.60;;
20022;SDS011;10172;42.054;24.546;2022-12-07T12:47:54;30.80;;;15.27;;
20022;SDS011;10172;42.054;24.546;2022-12-07T12:50:24;29.15;;;14.57;;
20022;SDS011;10172;42.054;24.546;2022-12-07T12:53:01;27.17;;;14.32;;
20022;SDS011;10172;42.054;24.546;2022-12-07T13:00:43;29.67;;;15.68;;
20022;SDS011;10172;42.054;24.546;2022-12-07T13:03:22;31.38;;;15.00;;
20022;SDS011;10172;42.054;24.546;2022-12-07T13:06:17;25.25;;;14.27;;
20022;SDS011;10172;42.054;24.546;2022-12-07T13:08:48;28.05;;;13.50;;
20022;SDS011;10172;42.054;24.546;2022-12-07T13:20:02;35.30;;;17.35;;
20022;SDS011;10172;42.054;24.546;2022-12-07T13:25:10;30.65;;;16.73;;
20022;SDS011;10172;42.054;24.546;2022-12-07T13:27:43;31.65;;;16.73;;
20022;SDS011;10172;42.054;24.546;2022-12-07T13:30:18;39.80;;;20.92;;
20022;SDS011;10172;42.054;24.546;2022-12-07T13:32:55;31.08;;;16.27;;
20022;SDS011;10172;42.054;24.546;2022-12-07T13:35:29;26.13;;;16.23;;
20022;SDS011;10172;42.054;24.546;2022-12-07T13:38:01;34.88;;;17.38;;
20022;SDS011;10172;42.054;24.546;2022-12-07T13:40:29;46.10;;;23.77;;
20022;SDS011;10172;42.054;24.546;2022-12-07T13:43:01;34.30;;;19.90;;
20022;SDS011;10172;42.054;24.546;2022-12-07T13:45:30;39.88;;;21.58;;
20022;SDS011;10172;42.054;24.546;2022-12-07T13:48:32;35.88;;;20.73;;
20022;SDS011;10172;42.054;24.546;2022-12-07T13:51:24;34.88;;;17.40;;
20022;SDS011;10172;42.054;24.546;2022-12-07T13:54:10;33.85;;;17.52;;
20022;SDS011;10172;42.054;24.546;2022-12-07T13:56:37;35.70;;;18.70;;
20022;SDS011;10172;42.054;24.546;2022-12-07T13:59:12;35.95;;;18.27;;
20022;SDS011;10172;42.054;24.546;2022-12-07T14:01:43;39.28;;;19.40;;
20022;SDS011;10172;42.054;24.546;2022-12-07T14:06:58;36.45;;;20.35;;
20022;SDS011;10172;42.054;24.546;2022-12-07T14:09:26;50.17;;;27.80;;
20022;SDS011;10172;42.054;24.546;2022-12-07T14:11:53;43.80;;;25.17;;
20022;SDS011;10172;42.054;24.546;2022-12-07T14:14:25;35.95;;;19.75;;
20022;SDS011;10172;42.054;24.546;2022-12-07T14:17:09;34.95;;;19.88;;
20022;SDS011;10172;42.054;24.546;2022-12-07T14:19:42;48.95;;;24.70;;
20022;SDS011;10172;42.054;24.546;2022-12-07T14:22:20;42.15;;;20.77;;
20022;SDS011;10172;42.054;24.546;2022-12-07T14:24:49;44.50;;;23.60;;
20022;SDS011;10172;42.054;24.546;2022-12-07T14:27:18;48.15;;;26.83;;
20022;SDS011;10172;42.054;24.546;2022-12-07T14:29:45;33.15;;;16.88;;
20022;SDS011;10172;42.054;24.546;2022-12-07T14:34:58;38.08;;;21.35;;
20022;SDS011;10172;42.054;24.546;2022-12-07T14:37:24;24.63;;;14.02;;
20022;SDS011;10172;42.054;24.546;2022-12-07T14:39:50;29.55;;;15.68;;
20022;SDS011;10172;42.054;24.546;2022-12-07T14:42:16;48.42;;;27.08;;
20022;SDS011;10172;42.054;24.546;2022-12-07T14:44:41;44.50;;;22.85;;
20022;SDS011;10172;42.054;24.546;2022-12-07T14:47:09;37.85;;;20.23;;
20022;SDS011;10172;42.054;24.546;2022-12-07T14:49:35;46.45;;;28.67;;
20022;SDS011;10172;42.054;24.546;2022-12-07T14:52:00;42.08;;;24.58;;
20022;SDS011;10172;42.054;24.546;2022-12-07T14:54:26;52.15;;;30.02;;
20022;SDS011;10172;42.054;24.546;2022-12-07T14:56:55;49.17;;;29.73;;
20022;SDS011;10172;42.054;24.546;2022-12-07T14:59:21;36.45;;;22.50;;
20022;SDS011;10172;42.054;24.546;2022-12-07T15:01:46;29.75;;;17.20;;
20022;SDS011;10172;42.054;24.546;2022-12-07T15:04:11;31.67;;;17.85;;
20022;SDS011;10172;42.054;24.546;2022-12-07T15:06:37;31.20;;;16.75;;
20022;SDS011;10172;42.054;24.546;2022-12-07T15:09:03;35.30;;;18.42;;
20022;SDS011;10172;42.054;24.546;2022-12-07T15:11:29;40.58;;;19.75;;
20022;SDS011;10172;42.054;24.546;2022-12-07T15:13:54;38.10;;;23.17;;
20022;SDS011;10172;42.054;24.546;2022-12-07T15:16:37;42.08;;;23.00;;
20022;SDS011;10172;42.054;24.546;2022-12-07T15:19:05;41.80;;;19.98;;
20022;SDS011;10172;42.054;24.546;2022-12-07T15:21:31;41.92;;;20.63;;
20022;SDS011;10172;42.054;24.546;2022-12-07T15:23:56;38.63;;;23.17;;
20022;SDS011;10172;42.054;24.546;2022-12-07T15:26:22;35.13;;;24.98;;
20022;SDS011;10172;42.054;24.546;2022-12-07T15:28:47;46.17;;;26.77;;
20022;SDS011;10172;42.054;24.546;2022-12-07T15:31:16;38.53;;;21.45;;
20022;SDS011;10172;42.054;24.546;2022-12-07T15:33:43;44.53;;;22.42;;
20022;SDS011;10172;42.054;24.546;2022-12-07T15:36:11;56.83;;;30.38;;
20022;SDS011;10172;42.054;24.546;2022-12-07T15:38:50;53.08;;;28.92;;
20022;SDS011;10172;42.054;24.546;2022-12-07T15:41:16;31.98;;;17.15;;
20022;SDS011;10172;42.054;24.546;2022-12-07T15:43:42;30.55;;;16.17;;
20022;SDS011;10172;42.054;24.546;2022-12-07T15:46:33;44.70;;;25.58;;
20022;SDS011;10172;42.054;24.546;2022-12-07T15:49:00;35.30;;;19.33;;
20022;SDS011;10172;42.054;24.546;2022-12-07T15:51:26;32.70;;;16.45;;
20022;SDS011;10172;42.054;24.546;2022-12-07T15:53:52;28.42;;;15.57;;
20022;SDS011;10172;42.054;24.546;2022-12-07T15:56:18;29.85;;;15.77;;
20022;SDS011;10172;42.054;24.546;2022-12-07T15:58:43;27.23;;;15.68;;
20022;SDS011;10172;42.054;24.546;2022-12-07T16:01:13;31.05;;;15.25;;
20022;SDS011;10172;42.054;24.546;2022-12-07T16:03:39;31.92;;;14.88;;
20022;SDS011;10172;42.054;24.546;2022-12-07T16:06:05;27.80;;;15.82;;
20022;SDS011;10172;42.054;24.546;2022-12-07T16:08:31;26.40;;;14.45;;
20022;SDS011;10172;42.054;24.546;2022-12-07T16:10:57;27.67;;;14.65;;
20022;SDS011;10172;42.054;24.546;2022-12-07T16:13:22;30.42;;;15.75;;
20022;SDS011;10172;42.054;24.546;2022-12-07T16:15:48;32.78;;;16.17;;
20022;SDS011;10172;42.054;24.546;2022-12-07T16:18:13;34.95;;;18.35;;
20022;SDS011;10172;42.054;24.546;2022-12-07T16:20:39;31.40;;;16.85;;
20022;SDS011;10172;42.054;24.546;2022-12-07T16:23:05;78.68;;;40.60;;
20022;SDS011;10172;42.054;24.546;2022-12-07T16:25:32;50.78;;;29.05;;
20022;SDS011;10172;42.054;24.546;2022-12-07T16:27:57;28.80;;;16.55;;
20022;SDS011;10172;42.054;24.546;2022-12-07T16:30:23;28.15;;;15.50;;
20022;SDS011;10172;42.054;24.546;2022-12-07T16:32:48;31.55;;;18.70;;
20022;SDS011;10172;42.054;24.546;2022-12-07T16:35:14;38.15;;;21.65;;
20022;SDS011;10172;42.054;24.546;2022-12-07T16:37:41;33.95;;;14.95;;
20022;SDS011;10172;42.054;24.546;2022-12-07T16:40:07;29.08;;;14.20;;
20022;SDS011;10172;42.054;24.546;2022-12-07T16:42:34;23.83;;;13.18;;
20022;SDS011;10172;42.054;24.546;2022-12-07T16:45:00;23.88;;;12.98;;
20022;SDS011;10172;42.054;24.546;2022-12-07T16:47:27;27.63;;;13.52;;
20022;SDS011;10172;42.054;24.546;2022-12-07T16:49:52;25.90;;;12.75;;
20022;SDS011;10172;42.054;24.546;2022-12-07T16:52:18;20.85;;;12.40;;